CON weather

Concord Municipal Airport
Concord, New Hampshire, United States

Public forecast

Using degrees Fahrenheit for public forecast. Weather courtesy of forecast.io.

METAR (pilot weather report)

Retrieved 2019/05/20 17:51 UTC (1 hour ago):

KCON 201751Z AUTO 23011G19KT 200V260 10SM FEW049 28/16 A2967 RMK AO2 SLP046 60001 T02830156 10283 20200 58023

TAF (pilot weather forecast)

Retrieved 2019/05/20 18:22 UTC (35 minutes ago):

TAF KCON 201720Z 2018/2118 25008G15KT P6SM SCT050 TEMPO 2019/2023 2SM TSRA BKN050CB FM210000 28009KT P6SM SCT250 FM211200 31013G22KT P6SM FEW250